Terminal Aerodrome Forecast
Issued by NWS

Home | Current Version | Previous Version | Graphics & Text | Print | Product List | Glossary On
Versions: 1 2 3 4 5 6 7 8 9 10 11
231
FTUS43 KTOP 201445 AAA
TAFMHK
TAF AMD
KMHK 201445Z 2015/2112 35011KT P6SM SCT020 SCT130
     FM210200 03004KT P6SM FEW250=

USA.gov is the U.S. government's official web portal to all federal, state and local government web resources and services.